Time;durP1;ratioP1;P1;durP2;ratioP2;P2;SDS_P1;SDS_P2;PMS_P1;PMS_P2;Temp;Humidity;BMP_temperature;BMP_pressure;BME280_temperature;BME280_humidity;BME280_pressure;Samples;Min_cycle;Max_cycle;Signal;HPM_P1;HPM_P2
2022/08/09 00:00:06;;;;;;;4.53;3.38;;;;;;;18.75;64.67;100464.22;5031988;28;20033;-45
2022/08/09 00:02:32;;;;;;;3.55;3.05;;;;;;;18.70;64.70;100451.13;5032302;28;20107;-48
2022/08/09 00:04:58;;;;;;;4.25;3.15;;;;;;;18.66;65.01;100444.31;5031550;28;20033;-50
2022/08/09 00:07:24;;;;;;;3.83;3.17;;;;;;;18.62;65.42;100435.66;5041994;28;20462;-48
2022/08/09 00:09:49;;;;;;;4.45;3.00;;;;;;;18.68;65.02;100430.59;5051522;28;20515;-49
2022/08/09 00:12:15;;;;;;;5.50;3.38;;;;;;;18.67;64.95;100413.47;5036765;28;20517;-59
2022/08/09 00:14:40;;;;;;;3.63;3.28;;;;;;;18.64;65.29;100413.81;5051221;28;20041;-48
2022/08/09 00:17:06;;;;;;;3.67;3.22;;;;;;;18.75;64.54;100421.63;5051686;28;20025;-47
2022/08/09 00:19:32;;;;;;;4.70;3.45;;;;;;;18.60;65.56;100417.84;5038755;28;20034;-49
2022/08/09 00:21:57;;;;;;;4.25;3.25;;;;;;;18.47;65.68;100394.72;5030064;28;20029;-47
2022/08/09 00:24:24;;;;;;;6.35;3.15;;;;;;;18.48;66.01;100398.31;5031961;28;20103;-48
2022/08/09 00:26:50;;;;;;;7.57;3.17;;;;;;;18.46;66.16;100379.47;5031226;28;20040;-47
2022/08/09 00:29:16;;;;;;;3.65;3.13;;;;;;;18.35;66.23;100363.50;5031485;28;20022;-62
2022/08/09 00:31:41;;;;;;;4.13;3.20;;;;;;;18.30;66.34;100355.00;5042281;28;20456;-48
2022/08/09 00:34:07;;;;;;;4.25;3.13;;;;;;;18.32;66.28;100345.69;5051045;28;20107;-50
2022/08/09 00:36:33;;;;;;;5.82;3.42;;;;;;;18.32;66.20;100350.25;5045723;28;20033;-48
2022/08/09 00:38:58;;;;;;;4.28;3.25;;;;;;;18.25;66.28;100350.06;5030867;28;20222;-46
2022/08/09 00:41:24;;;;;;;5.28;3.20;;;;;;;18.30;66.19;100347.72;5030933;28;20036;-45
2022/08/09 00:43:50;;;;;;;4.70;2.90;;;;;;;18.22;66.39;100351.22;5043553;28;20118;-47
2022/08/09 00:46:17;;;;;;;4.10;3.30;;;;;;;18.19;66.56;100348.84;5050876;28;20040;-51
2022/08/09 00:48:42;;;;;;;2.95;2.60;;;;;;;18.23;66.47;100346.69;5047353;28;20044;-47
2022/08/09 00:51:08;;;;;;;3.05;2.78;;;;;;;18.22;66.38;100339.56;5050347;28;20041;-46
2022/08/09 00:53:35;;;;;;;5.22;3.10;;;;;;;18.05;66.39;100322.34;5050682;28;20029;-47
2022/08/09 00:56:01;;;;;;;3.67;2.70;;;;;;;18.11;66.48;100335.28;5033515;28;20033;-50
2022/08/09 00:58:27;;;;;;;5.22;3.08;;;;;;;18.06;66.67;100332.16;5030857;28;20037;-47
2022/08/09 01:00:54;;;;;;;4.07;2.53;;;;;;;18.05;66.79;100331.34;5034507;28;20520;-48
2022/08/09 01:03:56;;;;;;;4.60;2.60;;;;;;;18.09;66.96;100321.03;5049997;28;20032;-50
2022/08/09 01:06:49;;;;;;;3.83;2.80;;;;;;;18.11;67.08;100327.13;5047683;28;20381;-47
2022/08/09 01:09:28;;;;;;;2.60;2.40;;;;;;;17.93;67.34;100324.44;5030561;28;20118;-47
2022/08/09 01:11:58;;;;;;;3.17;2.83;;;;;;;17.94;67.67;100337.84;5029037;28;20404;-49
2022/08/09 01:14:31;;;;;;;3.10;2.80;;;;;;;17.90;67.87;100350.00;5030687;28;20498;-50
2022/08/09 01:17:21;;;;;;;2.60;2.40;;;;;;;17.96;68.22;100356.63;5030731;28;20037;-50
2022/08/09 01:20:03;;;;;;;4.43;2.78;;;;;;;17.92;68.48;100366.09;5044144;28;20033;-50
2022/08/09 01:22:45;;;;;;;3.83;2.80;;;;;;;17.78;68.52;100370.22;5050656;28;20029;-45
2022/08/09 01:25:31;;;;;;;2.90;2.70;;;;;;;17.82;68.50;100366.19;5041646;28;20037;-50
2022/08/09 01:28:00;;;;;;;4.05;2.78;;;;;;;17.70;68.53;100348.50;5029219;28;20034;-47
2022/08/09 01:30:29;;;;;;;3.80;2.78;;;;;;;17.68;68.64;100348.66;5032013;28;20740;-51
2022/08/09 01:32:57;;;;;;;3.33;2.42;;;;;;;17.61;68.73;100353.88;5050668;28;20029;-47
2022/08/09 01:35:28;;;;;;;2.80;2.30;;;;;;;17.60;68.73;100357.59;5050703;28;20032;-48
2022/08/09 01:37:58;;;;;;;2.97;2.17;;;;;;;17.58;68.89;100369.56;5043097;28;20117;-51
2022/08/09 01:40:27;;;;;;;2.80;2.47;;;;;;;17.35;68.87;100343.81;5030461;28;20021;-50
2022/08/09 01:42:54;;;;;;;2.40;2.20;;;;;;;17.56;68.37;100369.69;5030967;28;20061;-49
2022/08/09 01:45:21;;;;;;;3.40;1.98;;;;;;;17.54;68.65;100376.31;5032045;28;20489;-51
2022/08/09 01:47:48;;;;;;;4.30;2.38;;;;;;;17.51;68.95;100385.56;5030638;28;20080;-45
2022/08/09 01:50:14;;;;;;;3.65;2.60;;;;;;;17.59;67.97;100374.81;5030171;28;20151;-46
2022/08/09 01:52:42;;;;;;;2.88;2.15;;;;;;;17.71;67.86;100380.00;5043225;28;20028;-46
2022/08/09 01:55:09;;;;;;;3.22;2.20;;;;;;;17.58;68.36;100370.41;5050409;28;20453;-47
2022/08/09 01:57:41;;;;;;;3.60;2.63;;;;;;;17.53;68.76;100374.59;5045192;28;20057;-49
2022/08/09 02:00:09;;;;;;;2.53;2.00;;;;;;;17.46;68.92;100382.50;5050339;28;20029;-44
2022/08/09 02:02:39;;;;;;;3.63;1.90;;;;;;;17.50;68.71;100371.19;5036684;28;20057;-52
2022/08/09 02:05:08;;;;;;;6.82;2.20;;;;;;;17.54;68.72;100377.13;5044306;28;20037;-51
2022/08/09 02:07:38;;;;;;;4.30;2.00;;;;;;;17.52;68.85;100376.44;5030663;28;20063;-45
2022/08/09 02:10:17;;;;;;;3.20;2.15;;;;;;;17.62;69.04;100382.63;5037063;28;20409;-48
2022/08/09 02:12:45;;;;;;;2.47;2.10;;;;;;;17.57;68.73;100386.81;5050108;28;20041;-47
2022/08/09 02:15:13;;;;;;;2.80;2.30;;;;;;;17.56;68.69;100391.38;5051564;28;20458;-49
2022/08/09 02:17:41;;;;;;;4.18;2.20;;;;;;;17.57;68.64;100395.78;5052239;28;20056;-48
2022/08/09 02:20:07;;;;;;;3.53;2.38;;;;;;;17.57;68.78;100386.81;5053660;28;20028;-46
2022/08/09 02:22:55;;;;;;;2.50;2.15;;;;;;;17.73;68.96;100394.22;5049264;28;20496;-48
2022/08/09 02:25:26;;;;;;;3.00;2.03;;;;;;;17.52;68.40;100371.03;5033865;28;20064;-48
2022/08/09 02:27:58;;;;;;;2.45;2.08;;;;;;;17.79;67.84;100393.59;5033482;28;20057;-49
2022/08/09 02:30:25;;;;;;;4.18;2.38;;;;;;;17.77;67.67;100398.31;5042534;28;20086;-55
2022/08/09 02:32:53;;;;;;;2.00;1.75;;;;;;;17.78;68.02;100402.72;5051786;28;20087;-47
2022/08/09 02:35:23;;;;;;;2.58;1.90;;;;;;;17.83;68.05;100405.81;5051844;28;20033;-51
2022/08/09 02:37:55;;;;;;;5.75;2.28;;;;;;;17.73;67.86;100402.34;5033876;28;20034;-52
2022/08/09 02:40:23;;;;;;;2.67;2.17;;;;;;;17.88;67.81;100411.63;5036212;28;20031;-53
2022/08/09 02:42:52;;;;;;;2.42;1.90;;;;;;;17.88;67.72;100417.03;5044879;28;20048;-51
2022/08/09 02:45:28;;;;;;;3.00;2.08;;;;;;;17.99;67.99;100409.66;5053248;28;20040;-52
2022/08/09 02:47:57;;;;;;;5.53;2.40;;;;;;;17.92;67.95;100413.00;5051865;28;20381;-61
2022/08/09 02:50:29;;;;;;;4.15;2.35;;;;;;;17.93;68.27;100412.00;5053263;28;20040;-51
2022/08/09 02:53:08;;;;;;;3.83;2.72;;;;;;;18.01;68.09;100422.06;5053234;28;20036;-54
2022/08/09 02:55:35;;;;;;;3.97;2.47;;;;;;;17.96;67.81;100420.81;5040767;28;20034;-48
2022/08/09 02:58:01;;;;;;;2.83;2.40;;;;;;;17.99;67.88;100417.78;5032790;28;20069;-51
2022/08/09 03:00:28;;;;;;;3.53;2.92;;;;;;;18.03;67.77;100419.19;5034443;28;20036;-54
2022/08/09 03:02:56;;;;;;;3.08;2.45;;;;;;;18.09;67.54;100421.28;5053313;28;20527;-50
2022/08/09 03:05:23;;;;;;;4.35;2.85;;;;;;;18.02;67.32;100415.66;5052631;28;20029;-52
2022/08/09 03:07:50;;;;;;;2.85;2.50;;;;;;;18.18;67.26;100433.00;5038554;28;20037;-55
2022/08/09 03:10:17;;;;;;;4.45;2.50;;;;;;;18.25;66.73;100430.53;5033154;28;20096;-50
2022/08/09 03:12:43;;;;;;;3.72;2.72;;;;;;;18.27;66.24;100420.38;5032691;28;20071;-51
2022/08/09 03:15:11;;;;;;;3.55;2.40;;;;;;;18.33;65.94;100417.03;5033402;28;20120;-53
2022/08/09 03:17:37;;;;;;;3.63;2.50;;;;;;;18.50;65.87;100426.94;5032959;28;20394;-55
2022/08/09 03:20:06;;;;;;;4.38;2.60;;;;;;;18.59;65.64;100427.00;5032878;28;20025;-48
2022/08/09 03:22:36;;;;;;;3.53;2.60;;;;;;;18.72;64.96;100426.56;5032560;28;20033;-48
2022/08/09 03:25:03;;;;;;;3.60;2.50;;;;;;;18.77;64.48;100418.78;5032472;28;20029;-48
2022/08/09 03:27:31;;;;;;;6.53;2.88;;;;;;;18.73;63.84;100395.72;5043035;28;20120;-52
2022/08/09 03:29:58;;;;;;;3.33;2.55;;;;;;;18.91;63.49;100407.28;5052707;28;20437;-54
2022/08/09 03:32:24;;;;;;;3.55;2.80;;;;;;;18.98;63.50;100412.06;5049101;28;20104;-49
2022/08/09 03:34:50;;;;;;;3.60;2.78;;;;;;;19.06;63.16;100413.00;5032126;28;20037;-50
2022/08/09 03:37:16;;;;;;;3.03;2.63;;;;;;;19.10;63.03;100421.63;5032624;28;20414;-54
2022/08/09 03:39:41;;;;;;;3.22;2.75;;;;;;;19.32;61.81;100417.47;5044397;28;20021;-51
2022/08/09 03:42:07;;;;;;;3.25;2.90;;;;;;;19.35;61.30;100425.25;5050426;28;20102;-52
2022/08/09 03:44:32;;;;;;;5.03;2.72;;;;;;;19.23;62.18;100426.59;5048292;28;20424;-52
2022/08/09 03:46:58;;;;;;;3.22;2.72;;;;;;;19.32;61.65;100417.47;5032395;28;20072;-52
2022/08/09 03:49:27;;;;;;;4.65;2.53;;;;;;;19.26;61.60;100384.69;5032578;28;20124;-50
2022/08/09 03:51:57;;;;;;;2.95;2.30;;;;;;;19.54;60.98;100415.13;5033075;28;20052;-52
2022/08/09 03:54:25;;;;;;;3.17;2.50;;;;;;;19.59;60.54;100417.31;5031447;28;20397;-50
2022/08/09 03:56:52;;;;;;;2.60;2.30;;;;;;;19.63;60.75;100418.66;5031602;28;20339;-51
2022/08/09 03:59:18;;;;;;;4.82;3.00;;;;;;;19.73;60.01;100419.34;5040939;28;20033;-48
2022/08/09 04:01:44;;;;;;;4.97;2.92;;;;;;;19.71;60.33;100426.84;5051573;28;20040;-52
2022/08/09 04:04:11;;;;;;;3.00;2.40;;;;;;;19.83;60.24;100423.75;5049312;28;20393;-52
2022/08/09 04:06:38;;;;;;;2.40;2.20;;;;;;;19.97;59.52;100419.53;5051687;28;20033;-53
2022/08/09 04:09:05;;;;;;;5.82;2.63;;;;;;;19.98;59.22;100416.66;5044323;28;20076;-51
2022/08/09 04:11:49;;;;;;;3.28;2.55;;;;;;;20.18;59.04;100400.81;5050472;28;20076;-50
2022/08/09 04:14:18;;;;;;;4.18;2.65;;;;;;;20.36;57.70;100429.69;5051086;28;20401;-49
2022/08/09 04:16:44;;;;;;;3.28;2.28;;;;;;;20.45;57.26;100416.91;5037757;28;20037;-51
2022/08/09 04:19:09;;;;;;;4.63;2.30;;;;;;;20.62;56.91;100418.56;5031366;28;20033;-53
2022/08/09 04:21:34;;;;;;;2.58;2.10;;;;;;;20.78;56.48;100419.53;5031297;28;20048;-51
2022/08/09 04:24:00;;;;;;;3.45;2.15;;;;;;;20.79;56.19;100408.50;5037852;28;20108;-54
2022/08/09 04:26:26;;;;;;;2.92;2.22;;;;;;;20.76;55.84;100417.00;5051613;28;20497;-54
2022/08/09 04:28:51;;;;;;;2.63;2.30;;;;;;;20.68;55.80;100411.56;5050821;28;20029;-50
2022/08/09 04:31:17;;;;;;;3.30;1.90;;;;;;;20.78;55.62;100412.22;5033433;28;20037;-46
2022/08/09 04:33:42;;;;;;;1.92;1.83;;;;;;;20.90;55.00;100411.84;5031117;28;20026;-58
2022/08/09 04:36:08;;;;;;;5.22;2.22;;;;;;;20.97;54.33;100398.38;5037855;28;20024;-52
2022/08/09 04:38:33;;;;;;;4.03;2.05;;;;;;;21.17;53.72;100415.09;5050293;28;20048;-52
2022/08/09 04:40:59;;;;;;;2.70;1.80;;;;;;;21.17;54.07;100415.09;5051398;28;20094;-54
2022/08/09 04:43:24;;;;;;;2.88;1.75;;;;;;;21.15;53.98;100422.59;5031861;28;20128;-50
2022/08/09 04:45:50;;;;;;;2.97;2.10;;;;;;;21.03;54.18;100414.00;5030803;28;20033;-49
2022/08/09 04:48:15;;;;;;;2.75;2.05;;;;;;;20.83;54.65;100402.69;5039073;28;20401;-51
2022/08/09 04:50:41;;;;;;;1.95;1.65;;;;;;;20.74;55.11;100412.75;5050541;28;20353;-52
2022/08/09 04:53:09;;;;;;;2.50;1.98;;;;;;;20.71;55.28;100415.81;5050756;28;20413;-52
2022/08/09 04:55:36;;;;;;;2.35;1.80;;;;;;;20.71;55.07;100410.38;5038910;28;20033;-52
2022/08/09 04:58:01;;;;;;;1.88;1.75;;;;;;;20.57;55.34;100410.06;5030854;28;20033;-58
2022/08/09 05:00:27;;;;;;;2.03;1.85;;;;;;;20.43;55.59;100408.09;5031868;28;20037;-54
2022/08/09 05:02:53;;;;;;;3.67;1.73;;;;;;;20.33;56.14;100403.69;5050289;28;20044;-50
2022/08/09 05:05:19;;;;;;;2.00;1.70;;;;;;;20.32;56.21;100401.16;5050702;28;20032;-52
2022/08/09 05:07:45;;;;;;;5.25;1.95;;;;;;;20.35;56.00;100385.31;5037150;28;20030;-51
2022/08/09 05:10:11;;;;;;;3.42;1.70;;;;;;;20.35;55.81;100376.31;5030350;28;20084;-53
2022/08/09 05:12:37;;;;;;;4.25;1.80;;;;;;;20.59;55.48;100391.69;5031278;28;20392;-50
2022/08/09 05:15:03;;;;;;;2.28;1.70;;;;;;;20.75;54.67;100396.25;5031142;28;20029;-60
2022/08/09 05:17:29;;;;;;;1.67;1.50;;;;;;;20.91;54.31;100399.94;5030880;28;20026;-54
2022/08/09 05:19:54;;;;;;;2.05;1.70;;;;;;;20.94;54.15;100394.13;5031324;28;20038;-53
2022/08/09 05:22:20;;;;;;;2.10;1.90;;;;;;;20.84;54.17;100385.34;5030675;28;20036;-51
2022/08/09 05:24:45;;;;;;;2.70;1.80;;;;;;;20.83;54.55;100389.94;5030948;28;20129;-50
2022/08/09 05:27:11;;;;;;;2.47;1.80;;;;;;;20.84;54.42;100398.94;5047550;28;20029;-51
2022/08/09 05:29:36;;;;;;;3.38;1.90;;;;;;;20.77;54.43;100401.50;5050393;28;20029;-50
2022/08/09 05:32:02;;;;;;;6.78;1.85;;;;;;;20.72;54.63;100393.84;5051020;28;20041;-53
2022/08/09 05:34:30;;;;;;;2.38;1.50;;;;;;;20.71;54.56;100400.31;5034022;28;20055;-54
2022/08/09 05:36:56;;;;;;;3.95;1.83;;;;;;;20.78;54.47;100401.34;5030445;28;20033;-52
2022/08/09 05:39:23;;;;;;;3.15;1.55;;;;;;;20.86;54.15;100388.75;5031079;28;20040;-49
2022/08/09 05:41:48;;;;;;;2.88;2.00;;;;;;;21.04;53.76;100386.59;5030382;28;20459;-53
2022/08/09 05:44:14;;;;;;;4.78;2.45;;;;;;;21.37;52.88;100377.38;5030636;28;20079;-51
2022/08/09 05:46:40;;;;;;;5.53;2.20;;;;;;;21.70;52.34;100395.34;5031259;28;20399;-48
2022/08/09 05:49:06;;;;;;;4.03;2.10;;;;;;;22.13;51.03;100367.53;5030276;28;20033;-55
2022/08/09 05:51:31;;;;;;;3.55;2.00;;;;;;;23.33;48.39;100392.00;5034358;28;20505;-53
2022/08/09 05:53:57;;;;;;;2.00;1.73;;;;;;;24.75;44.76;100388.47;5035231;28;20060;-54
2022/08/09 05:56:22;;;;;;;4.05;1.80;;;;;;;26.42;41.13;100386.97;5033822;28;20116;-54
2022/08/09 05:58:48;;;;;;;3.78;1.80;;;;;;;27.12;39.20;100385.41;5038862;28;20116;-54
2022/08/09 06:01:13;;;;;;;3.17;2.03;;;;;;;27.16;38.92;100388.59;5053804;28;20025;-50
2022/08/09 06:03:39;;;;;;;2.13;1.90;;;;;;;27.09;38.85;100388.63;5046922;28;20083;-49
2022/08/09 06:06:05;;;;;;;2.38;2.13;;;;;;;26.84;39.37;100374.78;5045387;28;20044;-51
2022/08/09 06:08:30;;;;;;;2.70;2.08;;;;;;;26.41;39.86;100379.78;5053787;28;20035;-50
2022/08/09 06:10:56;;;;;;;4.90;2.20;;;;;;;26.41;40.26;100376.22;5051708;28;20044;-49
2022/08/09 06:13:22;;;;;;;2.22;1.60;;;;;;;28.13;36.83;100365.41;5047875;28;20037;-51
2022/08/09 06:15:49;;;;;;;2.42;1.73;;;;;;;29.60;33.91;100381.19;5034576;28;20363;-58
2022/08/09 06:18:14;;;;;;;1.92;1.40;;;;;;;29.93;32.79;100379.78;5041010;28;20041;-53
2022/08/09 06:20:40;;;;;;;2.55;1.63;;;;;;;30.11;32.85;100380.75;5033533;28;20025;-52
2022/08/09 06:23:06;;;;;;;4.13;1.80;;;;;;;30.61;32.10;100384.06;5036295;28;20039;-61
2022/08/09 06:25:32;;;;;;;4.93;1.48;;;;;;;30.65;31.78;100380.59;5043672;28;20036;-54
2022/08/09 06:27:58;;;;;;;2.00;1.50;;;;;;;30.53;32.07;100377.00;5053355;28;20405;-52
2022/08/09 06:30:24;;;;;;;1.90;1.50;;;;;;;29.64;33.29;100376.03;5051134;28;20048;-53
2022/08/09 06:32:51;;;;;;;2.75;1.60;;;;;;;28.46;34.99;100385.44;5053120;28;20049;-53
2022/08/09 06:35:18;;;;;;;1.75;1.60;;;;;;;26.93;37.62;100382.59;5049564;28;20025;-50
2022/08/09 06:37:44;;;;;;;4.03;1.90;;;;;;;25.90;40.36;100386.78;5034306;28;20143;-48
2022/08/09 06:40:10;;;;;;;2.58;1.65;;;;;;;25.21;41.62;100384.19;5032621;28;20493;-57
2022/08/09 06:42:36;;;;;;;4.47;1.65;;;;;;;24.68;42.76;100382.91;5034369;28;20029;-47
2022/08/09 06:45:01;;;;;;;3.10;2.00;;;;;;;24.40;43.40;100392.03;5033214;28;20095;-51
2022/08/09 06:47:29;;;;;;;2.95;1.48;;;;;;;24.21;43.80;100397.19;5038142;28;20039;-54
2022/08/09 06:49:54;;;;;;;2.28;1.90;;;;;;;24.22;43.87;100398.88;5052500;28;20036;-54
2022/08/09 06:52:20;;;;;;;1.95;1.85;;;;;;;24.18;43.51;100394.84;5053285;28;20036;-52
2022/08/09 06:54:45;;;;;;;3.90;1.85;;;;;;;24.17;43.89;100384.09;5052947;28;20405;-53
2022/08/09 06:57:11;;;;;;;2.28;1.50;;;;;;;24.18;43.55;100394.84;5053010;28;20033;-54
2022/08/09 06:59:37;;;;;;;3.67;1.70;;;;;;;23.93;44.46;100392.53;5053528;28;20024;-53
2022/08/09 07:02:02;;;;;;;2.20;1.80;;;;;;;23.57;44.93;100388.00;5052760;28;20421;-54
2022/08/09 07:04:28;;;;;;;2.03;1.70;;;;;;;23.34;45.76;100389.03;5052522;28;20043;-55
2022/08/09 07:06:54;;;;;;;2.75;1.92;;;;;;;23.19;45.67;100383.59;5052362;28;20453;-51
2022/08/09 07:09:20;;;;;;;4.13;1.80;;;;;;;23.03;46.15;100395.63;5053068;28;20029;-54
2022/08/09 07:11:46;;;;;;;1.50;1.38;;;;;;;22.78;46.70;100390.50;5052596;28;20412;-55
2022/08/09 07:14:16;;;;;;;2.78;1.88;;;;;;;22.44;47.66;100388.31;5052608;28;20120;-53
2022/08/09 07:16:42;;;;;;;2.65;1.75;;;;;;;22.26;48.20;100402.34;5051343;28;20090;-54
2022/08/09 07:19:10;;;;;;;3.92;1.60;;;;;;;22.17;48.43;100404.31;5053198;28;20424;-54
2022/08/09 07:21:37;;;;;;;1.70;1.35;;;;;;;22.02;49.06;100405.13;5052899;28;20025;-51
2022/08/09 07:24:03;;;;;;;1.75;1.58;;;;;;;22.06;49.17;100405.59;5052531;28;20039;-52
2022/08/09 07:26:29;;;;;;;2.95;1.67;;;;;;;22.10;48.81;100393.28;5052206;28;20029;-48
2022/08/09 07:28:55;;;;;;;2.03;1.63;;;;;;;22.16;48.54;100399.88;5052711;28;20025;-51
2022/08/09 07:31:20;;;;;;;2.38;1.70;;;;;;;22.09;48.85;100391.59;5052560;28;20104;-54
2022/08/09 07:33:45;;;;;;;5.30;1.58;;;;;;;22.19;48.77;100402.22;5052551;28;20123;-53
2022/08/09 07:36:12;;;;;;;2.42;1.52;;;;;;;22.23;48.64;100395.38;5052098;28;20108;-52
2022/08/09 07:38:37;;;;;;;3.60;1.50;;;;;;;22.32;48.38;100405.19;5052869;28;20094;-54
2022/08/09 07:41:03;;;;;;;3.38;1.52;;;;;;;22.57;48.04;100396.75;5052422;28;20412;-51
2022/08/09 07:43:28;;;;;;;2.13;1.60;;;;;;;22.84;47.26;100398.94;5051837;28;20051;-51
2022/08/09 07:45:54;;;;;;;1.50;1.10;;;;;;;23.18;46.44;100401.03;5052156;28;20360;-52
2022/08/09 07:48:19;;;;;;;3.20;1.40;;;;;;;23.52;45.79;100406.88;5052364;28;20037;-53
2022/08/09 07:50:45;;;;;;;2.88;1.73;;;;;;;23.96;44.89;100406.84;5052075;28;20029;-51
2022/08/09 07:53:11;;;;;;;3.10;1.65;;;;;;;24.48;43.68;100396.50;5052163;28;20033;-53
2022/08/09 07:55:36;;;;;;;2.13;1.58;;;;;;;24.97;42.54;100388.34;5052017;28;20397;-53
2022/08/09 07:58:02;;;;;;;3.50;1.58;;;;;;;25.13;41.87;100376.16;5051899;28;20443;-51
2022/08/09 08:00:28;;;;;;;3.67;1.60;;;;;;;24.98;42.47;100371.69;5051876;28;20082;-52
2022/08/09 08:02:55;;;;;;;3.67;1.70;;;;;;;24.82;42.66;100374.78;5051446;28;20500;-52
2022/08/09 08:05:21;;;;;;;3.72;1.90;;;;;;;24.58;42.94;100374.22;5051472;28;20512;-54
2022/08/09 08:07:47;;;;;;;2.78;1.67;;;;;;;24.35;43.58;100403.59;5051867;28;20021;-53
2022/08/09 08:10:13;;;;;;;2.53;1.70;;;;;;;24.63;42.63;100412.81;5051702;28;20065;-58
2022/08/09 08:12:41;;;;;;;3.88;2.35;;;;;;;25.16;42.02;100414.94;5051043;28;20076;-51
2022/08/09 08:15:07;;;;;;;2.53;1.77;;;;;;;25.78;40.90;100411.25;5051019;28;20025;-55
2022/08/09 08:17:32;;;;;;;5.32;1.90;;;;;;;26.22;39.52;100390.59;5050719;28;20039;-50
2022/08/09 08:19:58;;;;;;;3.75;1.45;;;;;;;26.36;39.25;100398.81;5051770;28;20029;-55
2022/08/09 08:22:23;;;;;;;4.05;1.50;;;;;;;26.32;39.28;100403.03;5051673;28;20031;-52
2022/08/09 08:24:54;;;;;;;6.25;1.40;;;;;;;26.20;39.17;100395.44;5051798;28;20440;-52
2022/08/09 08:27:24;;;;;;;5.85;1.60;;;;;;;25.92;39.71;100385.53;5051401;28;20484;-53
2022/08/09 08:29:50;;;;;;;3.28;1.48;;;;;;;26.20;39.36;100403.69;5051274;28;20029;-52
2022/08/09 08:32:16;;;;;;;5.03;1.35;;;;;;;26.12;39.43;100412.13;5051280;28;20056;-54
2022/08/09 08:34:41;;;;;;;4.38;1.75;;;;;;;25.94;39.91;100413.59;5051576;28;20115;-53
2022/08/09 08:37:07;;;;;;;4.40;1.38;;;;;;;26.08;39.37;100413.59;5051108;28;20109;-49
2022/08/09 08:39:32;;;;;;;3.00;1.65;;;;;;;26.18;39.42;100411.28;5051054;28;20051;-54
2022/08/09 08:41:58;;;;;;;5.70;1.60;;;;;;;26.43;38.77;100409.78;5050943;28;20029;-51
2022/08/09 08:44:26;;;;;;;3.80;1.40;;;;;;;26.63;37.95;100415.22;5051126;28;20037;-53
2022/08/09 08:46:53;;;;;;;1.55;1.30;;;;;;;26.79;37.44;100409.25;5051373;28;20025;-50
2022/08/09 08:49:20;;;;;;;1.75;1.20;;;;;;;27.08;37.16;100412.53;5051123;28;20025;-48
2022/08/09 08:51:46;;;;;;;2.88;1.33;;;;;;;27.26;36.10;100410.09;5050835;28;20432;-53
2022/08/09 08:54:13;;;;;;;2.30;1.23;;;;;;;27.45;35.84;100413.78;5051082;28;20036;-55
2022/08/09 08:56:39;;;;;;;5.43;1.27;;;;;;;27.46;35.93;100419.06;5051325;28;20024;-52
2022/08/09 08:59:07;;;;;;;2.72;1.50;;;;;;;27.44;35.55;100418.44;5050780;28;20457;-55
2022/08/09 09:01:35;;;;;;;3.25;1.35;;;;;;;27.43;35.89;100418.66;5050510;28;20060;-55
2022/08/09 09:04:03;;;;;;;4.07;1.30;;;;;;;27.53;35.88;100424.56;5051273;28;20037;-55
2022/08/09 09:06:34;;;;;;;1.98;1.38;;;;;;;27.64;35.74;100418.34;5051404;28;20036;-55
2022/08/09 09:09:02;;;;;;;3.33;1.60;;;;;;;27.39;35.35;100418.28;5050827;28;20033;-55
2022/08/09 09:11:29;;;;;;;1.40;1.30;;;;;;;27.15;35.48;100411.63;5050872;28;20485;-54
2022/08/09 09:13:58;;;;;;;2.75;1.27;;;;;;;27.17;36.10;100402.13;5051021;28;20041;-56
2022/08/09 09:16:25;;;;;;;4.30;1.77;;;;;;;27.34;35.66;100420.81;5050725;28;20095;-56
2022/08/09 09:18:54;;;;;;;2.78;1.60;;;;;;;27.37;35.43;100421.22;5050521;28;20140;-51
2022/08/09 09:21:19;;;;;;;3.83;1.50;;;;;;;27.10;35.75;100403.22;5050493;28;20036;-54
2022/08/09 09:23:45;;;;;;;2.15;1.30;;;;;;;26.76;36.36;100401.41;5052388;28;20112;-51
2022/08/09 09:26:12;;;;;;;4.15;1.33;;;;;;;26.69;36.91;100405.28;5055126;28;20503;-53
2022/08/09 09:28:43;;;;;;;3.65;1.73;;;;;;;26.77;36.56;100399.53;5054534;28;20057;-55
2022/08/09 09:31:18;;;;;;;8.25;1.95;;;;;;;27.12;36.11;100406.59;5054637;28;20118;-53
2022/08/09 09:33:43;;;;;;;2.80;1.57;;;;;;;26.84;36.60;100389.34;5055178;28;20029;-52
2022/08/09 09:36:11;;;;;;;1.98;1.50;;;;;;;26.88;36.21;100389.78;5054961;28;20041;-53
2022/08/09 09:39:07;;;;;;;2.80;1.33;;;;;;;27.05;36.74;100396.47;5054352;28;20032;-49
2022/08/09 09:41:34;;;;;;;3.92;1.30;;;;;;;27.08;36.22;100392.44;5053911;28;20045;-55
2022/08/09 09:44:05;;;;;;;2.10;1.23;;;;;;;27.25;36.38;100398.28;5054146;28;20064;-52
2022/08/09 09:46:35;;;;;;;1.55;1.00;;;;;;;27.21;36.31;100394.25;5054469;28;20069;-53
2022/08/09 09:49:04;;;;;;;4.13;1.40;;;;;;;27.02;36.47;100391.41;5054097;28;20183;-54
2022/08/09 09:51:31;;;;;;;3.17;1.40;;;;;;;26.76;36.89;100393.16;5054137;28;20037;-54
2022/08/09 09:54:14;;;;;;;1.40;1.30;;;;;;;26.92;37.24;100397.38;5054819;28;20024;-52
2022/08/09 09:56:45;;;;;;;4.25;1.20;;;;;;;26.33;38.46;100404.72;5054128;28;20102;-51
2022/08/09 09:59:12;;;;;;;5.13;1.42;;;;;;;25.92;39.13;100402.00;5054430;28;20032;-53
2022/08/09 10:01:38;;;;;;;1.33;1.23;;;;;;;25.79;39.91;100386.38;5054231;28;20387;-51
2022/08/09 10:04:15;;;;;;;1.80;1.40;;;;;;;26.05;39.78;100387.41;5053673;28;20048;-52
2022/08/09 10:06:43;;;;;;;3.00;1.65;;;;;;;26.34;39.05;100390.78;5053663;28;20079;-53
2022/08/09 10:09:11;;;;;;;3.17;1.30;;;;;;;26.56;38.98;100387.75;5053810;28;20032;-51
2022/08/09 10:11:37;;;;;;;4.25;1.63;;;;;;;26.76;37.89;100384.09;5053505;28;20060;-49
2022/08/09 10:14:03;;;;;;;2.55;1.73;;;;;;;26.51;38.74;100382.91;5053699;28;20041;-51
2022/08/09 10:16:36;;;;;;;1.95;1.70;;;;;;;26.44;39.60;100387.59;5053078;28;20036;-51
2022/08/09 10:19:07;;;;;;;2.30;1.45;;;;;;;26.32;39.69;100381.91;5053685;28;20032;-51
2022/08/09 10:21:34;;;;;;;4.25;1.45;;;;;;;26.20;39.90;100384.47;5052991;28;20052;-49
2022/08/09 10:24:03;;;;;;;1.85;1.40;;;;;;;26.26;39.44;100385.53;5053143;28;20045;-50
2022/08/09 10:26:29;;;;;;;2.47;1.70;;;;;;;26.23;39.48;100383.22;5053127;28;20039;-50
2022/08/09 10:28:56;;;;;;;3.20;1.67;;;;;;;25.77;40.79;100384.91;5053451;28;20040;-51
2022/08/09 10:31:22;;;;;;;5.32;1.42;;;;;;;25.60;41.02;100384.47;5052746;28;20106;-53
2022/08/09 10:33:49;;;;;;;1.50;1.30;;;;;;;25.56;41.15;100377.72;5053682;28;20104;-52
2022/08/09 10:36:15;;;;;;;2.38;1.50;;;;;;;25.71;40.94;100383.88;5052010;28;20048;-52
2022/08/09 10:38:44;;;;;;;1.30;1.15;;;;;;;25.89;40.13;100383.22;5052858;28;20071;-52
2022/08/09 10:41:10;;;;;;;3.72;1.48;;;;;;;25.98;39.99;100388.47;5053329;28;20021;-56
2022/08/09 10:43:40;;;;;;;1.60;1.50;;;;;;;26.11;40.04;100387.63;5053208;28;20069;-54
2022/08/09 10:46:50;;;;;;;2.78;1.40;;;;;;;26.55;39.31;100386.06;5052666;28;20051;-56
2022/08/09 10:49:51;;;;;;;1.50;1.40;;;;;;;26.80;38.67;100390.84;5052658;28;20041;-52
2022/08/09 10:52:38;;;;;;;3.10;1.63;;;;;;;26.70;38.80;100394.03;5053763;28;20119;-52
2022/08/09 10:55:24;;;;;;;3.03;1.40;;;;;;;26.82;38.52;100401.63;5052793;28;20071;-52
2022/08/09 10:57:50;;;;;;;3.20;1.50;;;;;;;26.43;38.52;100377.66;5051927;28;20400;-52
2022/08/09 11:00:27;;;;;;;2.17;1.20;;;;;;;26.56;38.79;100397.91;5051523;28;20128;-54
2022/08/09 11:02:53;;;;;;;1.70;1.20;;;;;;;26.26;39.13;100393.75;5052928;28;20135;-51
2022/08/09 11:05:21;;;;;;;3.58;1.42;;;;;;;26.14;39.04;100401.78;5052856;28;20432;-51
2022/08/09 11:07:47;;;;;;;1.60;1.27;;;;;;;26.19;38.70;100402.00;5052692;28;20040;-51
2022/08/09 11:10:15;;;;;;;2.28;1.35;;;;;;;26.22;38.81;100392.50;5052717;28;20084;-52
2022/08/09 11:12:40;;;;;;;2.25;1.20;;;;;;;26.11;38.74;100395.84;5053004;28;20036;-54
2022/08/09 11:15:06;;;;;;;1.30;1.20;;;;;;;26.06;39.52;100391.84;5052490;28;20029;-51
2022/08/09 11:17:31;;;;;;;1.33;1.23;;;;;;;26.05;38.77;100398.41;5052842;28;20078;-50
2022/08/09 11:20:06;;;;;;;1.90;1.20;;;;;;;26.29;38.79;100404.31;5053240;28;20036;-54
2022/08/09 11:22:44;;;;;;;;;;;;;;;26.96;38.35;100388.69;5053354;28;20037;-49
2022/08/09 11:25:23;;;;;;;1.08;1.02;;;;;;;26.57;36.92;100356.50;5052586;28;19920;-54
2022/08/09 11:27:50;;;;;;;1.90;1.50;;;;;;;26.69;37.41;100397.84;5052976;28;20487;-55